createdAt,value
2022-12-29T00:00:26.748Z,6.80
2022-12-29T00:03:14.767Z,6.80
2022-12-29T00:05:42.767Z,6.80
2022-12-29T00:08:10.834Z,6.80
2022-12-29T00:10:38.757Z,6.80
2022-12-29T00:13:25.301Z,6.80
2022-12-29T00:15:53.319Z,6.80
2022-12-29T00:18:21.236Z,6.76
2022-12-29T00:21:07.839Z,6.80
2022-12-29T00:23:56.244Z,6.74
2022-12-29T00:26:43.070Z,6.76
2022-12-29T00:29:29.858Z,6.78
2022-12-29T00:32:16.479Z,6.70
2022-12-29T00:35:04.652Z,6.70
2022-12-29T00:37:51.617Z,6.70
2022-12-29T00:40:38.384Z,6.70
2022-12-29T00:43:24.998Z,6.70
2022-12-29T00:45:52.884Z,6.70
2022-12-29T00:48:40.739Z,6.70
2022-12-29T00:51:09.009Z,6.70
2022-12-29T00:53:36.964Z,6.70
2022-12-29T00:56:05.440Z,6.70
2022-12-29T00:58:33.374Z,6.70
2022-12-29T01:01:07.336Z,6.70
2022-12-29T01:03:37.846Z,6.70
2022-12-29T01:06:09.591Z,6.70
2022-12-29T01:08:37.661Z,6.70
2022-12-29T01:12:21.483Z,6.70
2022-12-29T01:14:49.540Z,6.70
2022-12-29T01:17:17.464Z,6.70
2022-12-29T01:19:46.070Z,6.70
2022-12-29T01:22:14.007Z,6.66
2022-12-29T01:24:41.991Z,6.60
2022-12-29T01:27:09.952Z,6.60
2022-12-29T01:29:37.826Z,6.60
2022-12-29T01:32:06.095Z,6.60
2022-12-29T01:34:34.017Z,6.60
2022-12-29T01:37:02.255Z,6.60
2022-12-29T01:39:30.214Z,6.60
2022-12-29T01:41:58.287Z,6.60
2022-12-29T01:44:50.705Z,6.60
2022-12-29T01:47:45.279Z,6.60
2022-12-29T01:50:25.005Z,6.60
2022-12-29T01:53:23.684Z,6.60
2022-12-29T01:55:58.853Z,6.52
2022-12-29T01:58:35.164Z,6.50
2022-12-29T02:01:04.094Z,6.50
2022-12-29T02:03:33.797Z,6.50
2022-12-29T02:06:32.369Z,6.50
2022-12-29T02:09:01.304Z,6.50
2022-12-29T02:11:31.693Z,6.50
2022-12-29T02:14:03.445Z,6.50
2022-12-29T02:16:52.319Z,6.40
2022-12-29T02:20:04.135Z,6.40
2022-12-29T02:23:03.248Z,6.40
2022-12-29T02:25:52.974Z,6.40
2022-12-29T02:29:08.073Z,6.40
2022-12-29T02:32:07.026Z,6.40
2022-12-29T02:35:03.626Z,6.40
2022-12-29T02:37:53.240Z,6.40
2022-12-29T02:40:48.999Z,6.40
2022-12-29T02:43:34.520Z,6.40
2022-12-29T02:46:16.808Z,6.40
2022-12-29T02:49:15.291Z,6.40
2022-12-29T02:52:07.850Z,6.40
2022-12-29T02:54:43.291Z,6.40
2022-12-29T02:57:29.564Z,6.40
2022-12-29T03:00:08.793Z,6.40
2022-12-29T03:02:58.932Z,6.40
2022-12-29T03:05:37.583Z,6.40
2022-12-29T03:08:48.161Z,6.40
2022-12-29T03:11:35.519Z,6.46
2022-12-29T03:14:51.930Z,6.42
2022-12-29T03:17:36.254Z,6.40
2022-12-29T03:20:16.017Z,6.40
2022-12-29T03:22:50.578Z,6.40
2022-12-29T03:25:41.627Z,6.40
2022-12-29T03:28:25.168Z,6.40
2022-12-29T03:30:53.962Z,6.40
2022-12-29T03:33:26.637Z,6.40
2022-12-29T03:36:05.343Z,6.40
2022-12-29T03:38:52.591Z,6.40
2022-12-29T03:41:28.514Z,6.40
2022-12-29T03:43:56.370Z,6.40
2022-12-29T03:46:24.337Z,6.46
2022-12-29T03:48:52.325Z,6.42
2022-12-29T03:51:20.387Z,6.40
2022-12-29T03:53:48.218Z,6.40
2022-12-29T03:56:16.387Z,6.40
2022-12-29T03:58:46.206Z,6.40
2022-12-29T04:01:14.246Z,6.40
2022-12-29T04:03:42.288Z,6.40
2022-12-29T04:06:10.286Z,6.40
2022-12-29T04:08:38.138Z,6.38
2022-12-29T04:11:06.342Z,6.40
2022-12-29T04:13:35.350Z,6.36
2022-12-29T04:16:03.440Z,6.30
2022-12-29T04:18:31.473Z,6.30
2022-12-29T04:21:03.785Z,6.30
2022-12-29T04:23:36.387Z,6.30
2022-12-29T04:26:07.533Z,6.30
2022-12-29T04:28:36.831Z,6.30
2022-12-29T04:31:05.551Z,6.30
2022-12-29T04:33:33.408Z,6.30
2022-12-29T04:36:01.979Z,6.30
2022-12-29T04:38:29.915Z,6.30
2022-12-29T04:41:02.007Z,6.30
2022-12-29T04:43:30.091Z,6.30
2022-12-29T04:45:58.200Z,6.30
2022-12-29T04:48:26.075Z,6.30
2022-12-29T04:50:53.912Z,6.30
2022-12-29T04:53:21.771Z,6.30
2022-12-29T04:55:52.593Z,6.30
2022-12-29T04:58:23.132Z,6.30
2022-12-29T05:00:53.310Z,6.30
2022-12-29T05:03:29.606Z,6.38
2022-12-29T05:06:01.774Z,6.40
2022-12-29T05:08:29.694Z,6.40
2022-12-29T05:10:57.530Z,6.40
2022-12-29T05:13:25.448Z,6.40
2022-12-29T05:15:54.828Z,6.40
2022-12-29T05:19:05.864Z,6.42
2022-12-29T05:21:33.796Z,6.50
2022-12-29T05:24:01.820Z,6.50
2022-12-29T05:26:29.775Z,6.60
2022-12-29T05:28:57.720Z,6.60
2022-12-29T05:31:25.884Z,6.60
2022-12-29T05:33:54.096Z,6.60
2022-12-29T05:36:22.287Z,6.60
2022-12-29T05:38:50.333Z,6.60
2022-12-29T05:41:18.360Z,6.60
2022-12-29T05:43:46.243Z,6.60
2022-12-29T05:46:14.271Z,6.60
2022-12-29T05:48:42.580Z,6.60
2022-12-29T05:51:10.461Z,6.60
2022-12-29T05:53:38.528Z,6.60
2022-12-29T05:56:07.149Z,6.60
2022-12-29T05:58:35.843Z,6.60
2022-12-29T06:01:03.864Z,6.60
2022-12-29T06:03:31.924Z,6.60
2022-12-29T06:06:00.014Z,6.60
2022-12-29T06:08:28.073Z,6.60
2022-12-29T06:10:55.987Z,6.60
2022-12-29T06:13:24.169Z,6.60
2022-12-29T06:15:52.745Z,6.60
2022-12-29T06:18:20.978Z,6.60
2022-12-29T06:20:49.471Z,6.60
2022-12-29T06:23:19.758Z,6.60
2022-12-29T06:25:50.969Z,6.60
2022-12-29T06:28:18.906Z,6.60
2022-12-29T06:30:47.693Z,6.60
2022-12-29T06:33:16.595Z,6.60
2022-12-29T06:35:47.167Z,6.64
2022-12-29T06:38:15.420Z,6.70
2022-12-29T06:40:46.169Z,6.68
2022-12-29T06:43:14.484Z,6.70
2022-12-29T06:45:43.634Z,6.70
2022-12-29T06:48:12.169Z,6.70
2022-12-29T06:50:40.125Z,6.70
2022-12-29T06:53:08.475Z,6.70
2022-12-29T06:55:36.405Z,6.70
2022-12-29T06:58:04.473Z,6.70
2022-12-29T07:00:32.433Z,6.70
2022-12-29T07:03:00.617Z,6.72
2022-12-29T07:05:28.872Z,6.72
2022-12-29T07:07:56.976Z,6.80
2022-12-29T07:10:25.290Z,6.80
2022-12-29T07:12:53.465Z,6.80
2022-12-29T07:15:21.612Z,6.80
2022-12-29T07:17:50.890Z,6.80
2022-12-29T07:20:24.692Z,6.80
2022-12-29T07:22:58.215Z,6.80
2022-12-29T07:25:26.285Z,6.80
2022-12-29T07:27:55.089Z,6.80
2022-12-29T07:30:23.078Z,6.84
2022-12-29T07:32:51.028Z,6.90
2022-12-29T07:35:19.285Z,6.90
2022-12-29T07:37:47.933Z,6.90
2022-12-29T07:40:16.216Z,6.90
2022-12-29T07:42:44.154Z,6.92
2022-12-29T07:45:12.400Z,6.96
2022-12-29T07:47:40.396Z,7.00
2022-12-29T07:50:08.762Z,7.00
2022-12-29T07:52:36.773Z,7.00
2022-12-29T07:55:05.495Z,7.00
2022-12-29T07:57:33.689Z,7.00
2022-12-29T08:00:01.767Z,7.00
2022-12-29T08:02:30.881Z,7.04
2022-12-29T08:04:58.915Z,7.08
2022-12-29T08:07:26.785Z,7.10
2022-12-29T08:09:54.741Z,7.10
2022-12-29T08:12:22.577Z,7.10
2022-12-29T08:14:51.103Z,7.14
2022-12-29T08:17:19.066Z,7.20
2022-12-29T08:20:08.407Z,7.20
2022-12-29T08:22:36.809Z,7.28
2022-12-29T08:25:05.287Z,7.30
2022-12-29T08:27:33.253Z,7.30
2022-12-29T08:30:02.113Z,7.30
2022-12-29T08:32:30.555Z,7.30
2022-12-29T08:34:58.574Z,7.30
2022-12-29T08:37:31.254Z,7.30
2022-12-29T08:40:01.217Z,7.30
2022-12-29T08:42:37.303Z,7.30
2022-12-29T08:45:07.941Z,7.30
2022-12-29T08:47:36.070Z,7.30
2022-12-29T08:50:04.432Z,7.30
2022-12-29T08:52:32.305Z,7.30
2022-12-29T08:55:00.379Z,7.30
2022-12-29T08:57:28.269Z,7.32
2022-12-29T08:59:56.113Z,7.30
2022-12-29T09:02:25.033Z,7.40
2022-12-29T09:04:53.326Z,7.40
2022-12-29T09:07:21.352Z,7.40
2022-12-29T09:09:49.483Z,7.40
2022-12-29T09:12:19.290Z,7.44
2022-12-29T09:14:48.415Z,7.50
2022-12-29T09:17:35.031Z,7.50
2022-12-29T09:20:04.954Z,7.50
2022-12-29T09:22:33.009Z,7.50
2022-12-29T09:25:00.912Z,7.52
2022-12-29T09:27:28.842Z,7.56
2022-12-29T09:29:57.196Z,7.60
2022-12-29T09:32:28.578Z,7.60
2022-12-29T09:34:59.869Z,7.60
2022-12-29T09:37:28.675Z,7.70
2022-12-29T09:39:56.712Z,7.70
2022-12-29T09:42:46.004Z,7.80
2022-12-29T09:45:54.464Z,7.80
2022-12-29T09:48:30.523Z,7.80
2022-12-29T09:51:04.895Z,7.84
2022-12-29T09:54:17.351Z,7.88
2022-12-29T09:56:47.117Z,7.90
2022-12-29T09:59:43.724Z,7.90
2022-12-29T10:02:33.142Z,7.92
2022-12-29T10:05:01.312Z,8.00
2022-12-29T10:07:50.313Z,8.00
2022-12-29T10:10:40.706Z,8.10
2022-12-29T10:13:35.349Z,8.10
2022-12-29T10:16:21.261Z,8.10
2022-12-29T10:19:33.800Z,8.16
2022-12-29T10:22:23.120Z,8.20
2022-12-29T10:24:58.064Z,8.20
2022-12-29T10:27:26.022Z,8.26
2022-12-29T10:29:58.540Z,8.30
2022-12-29T10:32:36.414Z,8.40
2022-12-29T10:35:24.657Z,8.40
2022-12-29T10:38:19.729Z,8.50
2022-12-29T10:41:04.439Z,8.50
2022-12-29T10:43:50.978Z,8.50
2022-12-29T10:46:28.053Z,8.60
2022-12-29T10:48:55.981Z,8.60
2022-12-29T10:51:42.726Z,8.70
2022-12-29T10:54:46.351Z,8.70
2022-12-29T10:57:38.494Z,8.70
2022-12-29T11:00:21.606Z,8.70
2022-12-29T11:02:58.632Z,8.70
2022-12-29T11:06:35.057Z,8.76
2022-12-29T11:09:17.363Z,8.80
2022-12-29T11:11:46.300Z,8.80
2022-12-29T11:14:32.761Z,8.80
2022-12-29T11:17:04.335Z,8.80
2022-12-29T11:19:40.750Z,8.80
2022-12-29T11:22:29.539Z,8.80
2022-12-29T11:25:13.443Z,8.90
2022-12-29T11:28:02.703Z,8.90
2022-12-29T11:30:33.550Z,9.00
2022-12-29T11:33:06.693Z,9.10
2022-12-29T11:35:41.899Z,9.10
2022-12-29T11:38:41.533Z,9.00
2022-12-29T11:41:20.089Z,9.04
2022-12-29T11:43:49.002Z,9.00
2022-12-29T11:46:27.370Z,9.00
2022-12-29T11:49:01.668Z,9.00
2022-12-29T11:51:40.468Z,8.92
2022-12-29T11:54:20.605Z,8.90
2022-12-29T11:56:50.614Z,8.90
2022-12-29T11:59:28.104Z,8.90
2022-12-29T12:01:58.751Z,8.90
2022-12-29T12:04:35.323Z,8.90
2022-12-29T12:07:09.225Z,8.90
2022-12-29T12:09:49.021Z,8.90
2022-12-29T12:12:35.621Z,8.90
2022-12-29T12:15:05.457Z,8.88
2022-12-29T12:18:03.192Z,8.88
2022-12-29T12:20:43.878Z,8.84
2022-12-29T12:23:27.133Z,8.80
2022-12-29T12:26:23.645Z,8.82
2022-12-29T12:29:06.917Z,8.90
2022-12-29T12:32:02.732Z,8.90
2022-12-29T12:34:40.527Z,8.90
2022-12-29T12:37:42.360Z,8.90
2022-12-29T12:40:25.729Z,8.90
2022-12-29T12:43:34.644Z,8.90
2022-12-29T12:46:16.706Z,8.90
2022-12-29T12:49:24.849Z,8.90
2022-12-29T12:52:10.757Z,8.90
2022-12-29T12:55:30.778Z,8.90
2022-12-29T12:58:09.563Z,8.90
2022-12-29T13:01:02.511Z,8.90
2022-12-29T13:04:14.341Z,8.94
2022-12-29T13:07:04.743Z,8.98
2022-12-29T13:09:59.356Z,9.00
2022-12-29T13:13:20.936Z,9.00
2022-12-29T13:16:20.479Z,9.00
2022-12-29T13:19:04.991Z,9.00
2022-12-29T13:22:30.899Z,9.00
2022-12-29T13:25:35.898Z,9.00
2022-12-29T13:28:32.353Z,9.00
2022-12-29T13:31:31.439Z,9.00
2022-12-29T13:34:36.885Z,9.00
2022-12-29T13:37:15.197Z,9.00
2022-12-29T13:40:05.384Z,9.00
2022-12-29T13:42:35.516Z,9.00
2022-12-29T13:45:13.254Z,9.00
2022-12-29T13:47:48.532Z,9.00
2022-12-29T13:50:25.615Z,8.96
2022-12-29T13:53:18.119Z,8.90
2022-12-29T13:56:11.982Z,8.90
2022-12-29T13:59:04.090Z,8.80
2022-12-29T14:01:51.695Z,8.80
2022-12-29T14:04:30.239Z,8.76
2022-12-29T14:07:14.091Z,8.70
2022-12-29T14:09:58.532Z,8.70
2022-12-29T14:12:41.929Z,8.70
2022-12-29T14:15:12.798Z,8.62
2022-12-29T14:17:42.356Z,8.60
2022-12-29T14:20:24.080Z,8.60
2022-12-29T14:23:41.028Z,8.60
2022-12-29T14:26:30.647Z,8.60
2022-12-29T14:29:26.826Z,8.60
2022-12-29T14:31:54.933Z,8.56
2022-12-29T14:34:23.107Z,8.50
2022-12-29T14:37:03.363Z,8.50
2022-12-29T14:39:43.419Z,8.48
2022-12-29T14:42:11.381Z,8.40
2022-12-29T14:45:17.748Z,8.40
2022-12-29T14:47:51.266Z,8.40
2022-12-29T14:50:27.019Z,8.40
2022-12-29T14:53:04.333Z,8.40
2022-12-29T14:55:51.005Z,8.40
2022-12-29T14:58:28.982Z,8.40
2022-12-29T15:00:58.220Z,8.36
2022-12-29T15:03:51.087Z,8.30
2022-12-29T15:06:30.118Z,8.30
2022-12-29T15:09:22.934Z,8.30
2022-12-29T15:12:48.502Z,8.30
2022-12-29T15:15:31.023Z,8.30
2022-12-29T15:18:25.631Z,8.20
2022-12-29T15:21:02.017Z,8.20
2022-12-29T15:23:34.986Z,8.20
2022-12-29T15:26:08.017Z,8.20
2022-12-29T15:28:46.823Z,8.20
2022-12-29T15:31:20.699Z,8.20
2022-12-29T15:34:04.134Z,8.20
2022-12-29T15:36:39.813Z,8.20
2022-12-29T15:39:32.227Z,8.20
2022-12-29T15:42:58.450Z,8.22
2022-12-29T15:45:34.545Z,8.30
2022-12-29T15:48:05.274Z,8.30
2022-12-29T15:50:38.210Z,8.40
2022-12-29T15:53:13.917Z,8.50
2022-12-29T15:55:44.231Z,8.50
2022-12-29T15:58:27.272Z,8.60
2022-12-29T16:01:03.073Z,8.60
2022-12-29T16:03:37.895Z,8.60
2022-12-29T16:06:31.229Z,8.60
2022-12-29T16:09:15.141Z,8.60
2022-12-29T16:11:53.050Z,8.60
2022-12-29T16:14:31.009Z,8.60
2022-12-29T16:17:05.169Z,8.60
2022-12-29T16:19:38.566Z,8.60
2022-12-29T16:22:30.329Z,8.60
2022-12-29T16:25:18.122Z,8.60
2022-12-29T16:27:46.399Z,8.60
2022-12-29T16:30:35.792Z,8.60
2022-12-29T16:33:06.938Z,8.60
2022-12-29T16:35:48.747Z,8.60
2022-12-29T16:38:31.462Z,8.66
2022-12-29T16:41:05.744Z,8.70
2022-12-29T16:43:42.963Z,8.70
2022-12-29T16:46:29.872Z,8.80
2022-12-29T16:48:58.959Z,8.90
2022-12-29T16:51:37.649Z,8.90
2022-12-29T16:54:06.480Z,9.00
2022-12-29T16:56:44.021Z,9.10
2022-12-29T16:59:39.804Z,9.20
2022-12-29T17:02:16.244Z,9.40
2022-12-29T17:04:49.596Z,9.50
2022-12-29T17:07:22.654Z,9.50
2022-12-29T17:09:51.529Z,9.50
2022-12-29T17:12:24.703Z,9.50
2022-12-29T17:14:58.799Z,9.50
2022-12-29T17:17:39.421Z,9.40
2022-12-29T17:20:29.853Z,9.40
2022-12-29T17:23:00.278Z,9.40
2022-12-29T17:25:35.485Z,9.34
2022-12-29T17:28:26.722Z,9.26
2022-12-29T17:31:02.685Z,9.20
2022-12-29T17:33:38.459Z,9.10
2022-12-29T17:36:06.670Z,9.06
2022-12-29T17:38:37.912Z,9.00
2022-12-29T17:41:14.566Z,8.90
2022-12-29T17:43:42.489Z,8.90
2022-12-29T17:46:10.567Z,8.90
2022-12-29T17:48:38.561Z,8.80
2022-12-29T17:51:06.566Z,8.80
2022-12-29T17:53:34.473Z,8.80
2022-12-29T17:56:02.287Z,8.76
2022-12-29T17:58:31.929Z,8.70
2022-12-29T18:01:03.071Z,8.70
2022-12-29T18:03:39.620Z,8.70
2022-12-29T18:06:11.844Z,8.70
2022-12-29T18:08:41.412Z,8.70
2022-12-29T18:11:29.516Z,8.70
2022-12-29T18:13:57.602Z,8.62
2022-12-29T18:16:25.893Z,8.62
2022-12-29T18:18:54.121Z,8.60
2022-12-29T18:21:24.685Z,8.60
2022-12-29T18:23:52.722Z,8.64
2022-12-29T18:26:28.143Z,8.60
2022-12-29T18:29:00.129Z,8.62
2022-12-29T18:31:31.993Z,8.60
2022-12-29T18:34:05.143Z,8.60
2022-12-29T18:36:33.192Z,8.60
2022-12-29T18:39:01.060Z,8.54
2022-12-29T18:41:30.291Z,8.50
2022-12-29T18:44:00.253Z,8.40
2022-12-29T18:46:28.902Z,8.40
2022-12-29T18:48:56.876Z,8.40
2022-12-29T18:51:26.249Z,8.40
2022-12-29T18:53:54.905Z,8.40
2022-12-29T18:56:24.547Z,8.40
2022-12-29T18:58:53.708Z,8.40
2022-12-29T19:01:25.888Z,8.40
2022-12-29T19:03:54.552Z,8.50
2022-12-29T19:06:22.620Z,8.50
2022-12-29T19:08:50.731Z,8.50
2022-12-29T19:11:18.638Z,8.44
2022-12-29T19:13:46.680Z,8.48
2022-12-29T19:16:21.550Z,8.44
2022-12-29T19:19:07.979Z,8.50
2022-12-29T19:21:37.800Z,8.48
2022-12-29T19:24:06.369Z,8.46
2022-12-29T19:26:38.455Z,8.40
2022-12-29T19:29:14.871Z,8.40
2022-12-29T19:31:43.015Z,8.40
2022-12-29T19:34:17.818Z,8.40
2022-12-29T19:36:46.168Z,8.40
2022-12-29T19:39:14.393Z,8.34
2022-12-29T19:41:42.579Z,8.30
2022-12-29T19:44:10.472Z,8.30
2022-12-29T19:46:38.457Z,8.30
2022-12-29T19:49:06.434Z,8.30
2022-12-29T19:51:35.245Z,8.30
2022-12-29T19:54:03.176Z,8.30
2022-12-29T19:56:31.783Z,8.28
2022-12-29T19:58:59.678Z,8.20
2022-12-29T20:01:28.033Z,8.20
2022-12-29T20:03:56.167Z,8.20
2022-12-29T20:06:24.175Z,8.20
2022-12-29T20:08:52.101Z,8.20
2022-12-29T20:11:20.008Z,8.20
2022-12-29T20:13:48.755Z,8.20
2022-12-29T20:16:20.726Z,8.20
2022-12-29T20:18:49.099Z,8.20
2022-12-29T20:21:21.541Z,8.20
2022-12-29T20:23:52.279Z,8.20
2022-12-29T20:26:29.309Z,8.12
2022-12-29T20:28:58.273Z,8.10
2022-12-29T20:31:31.527Z,8.10
2022-12-29T20:34:00.478Z,8.00
2022-12-29T20:36:32.119Z,8.00
2022-12-29T20:39:06.678Z,8.00
2022-12-29T20:41:35.128Z,8.00
2022-12-29T20:44:05.469Z,8.00
2022-12-29T20:46:43.049Z,8.00
2022-12-29T20:49:12.332Z,8.04
2022-12-29T20:54:38.453Z,8.00
2022-12-29T20:57:07.580Z,8.00
2022-12-29T20:59:35.915Z,8.00
2022-12-29T21:02:04.556Z,8.00
2022-12-29T21:04:57.373Z,8.00
2022-12-29T21:07:20.641Z,8.00
2022-12-29T21:09:48.888Z,8.00
2022-12-29T21:12:16.757Z,8.02
2022-12-29T21:14:45.976Z,8.10
2022-12-29T21:17:14.083Z,8.10
2022-12-29T21:19:43.062Z,8.10
2022-12-29T21:22:11.183Z,8.10
2022-12-29T21:24:39.731Z,8.12
2022-12-29T21:27:07.802Z,8.18
2022-12-29T21:29:35.786Z,8.20
2022-12-29T21:32:06.642Z,8.20
2022-12-29T21:34:35.551Z,8.22
2022-12-29T21:37:03.551Z,8.30
2022-12-29T21:39:31.481Z,8.30
2022-12-29T21:42:02.970Z,8.40
2022-12-29T21:44:50.003Z,8.40
2022-12-29T21:47:18.096Z,8.40
2022-12-29T21:49:46.030Z,8.40
2022-12-29T21:52:13.941Z,8.40
2022-12-29T21:55:00.450Z,8.40
2022-12-29T21:57:57.664Z,8.50
2022-12-29T22:00:44.614Z,8.50
2022-12-29T22:03:31.626Z,8.52
2022-12-29T22:06:18.162Z,8.60
2022-12-29T22:09:04.919Z,8.68
2022-12-29T22:11:51.528Z,8.70
2022-12-29T22:14:19.492Z,8.80
2022-12-29T22:16:47.521Z,8.80
2022-12-29T22:19:15.997Z,8.80
2022-12-29T22:21:44.147Z,8.80
2022-12-29T22:24:12.114Z,8.80
2022-12-29T22:26:41.908Z,8.84
2022-12-29T22:29:09.789Z,8.90
2022-12-29T22:31:37.796Z,8.88
2022-12-29T22:34:05.836Z,8.90
2022-12-29T22:36:33.873Z,8.90
2022-12-29T22:39:01.857Z,8.90
2022-12-29T22:41:29.842Z,8.90
2022-12-29T22:43:57.731Z,9.00
2022-12-29T22:46:25.633Z,9.00
2022-12-29T22:48:53.794Z,9.00
2022-12-29T22:51:21.685Z,9.00
2022-12-29T22:53:51.423Z,8.98
2022-12-29T22:56:19.918Z,8.94
2022-12-29T22:58:48.754Z,8.90
2022-12-29T23:01:21.503Z,8.90
2022-12-29T23:03:49.882Z,8.90
2022-12-29T23:06:18.137Z,8.82
2022-12-29T23:08:47.440Z,8.80
2022-12-29T23:11:16.316Z,8.82
2022-12-29T23:13:45.246Z,8.80
2022-12-29T23:16:15.555Z,8.82
2022-12-29T23:18:45.917Z,8.80
2022-12-29T23:21:17.508Z,8.80
2022-12-29T23:24:04.238Z,8.80
2022-12-29T23:26:42.381Z,8.70
2022-12-29T23:29:16.364Z,8.68
2022-12-29T23:31:46.360Z,8.60
2022-12-29T23:34:16.335Z,8.60
2022-12-29T23:36:44.741Z,8.50
2022-12-29T23:39:24.456Z,8.50
2022-12-29T23:41:52.875Z,8.40
2022-12-29T23:44:20.754Z,8.40
2022-12-29T23:46:48.735Z,8.40
2022-12-29T23:49:16.690Z,8.30
2022-12-29T23:51:44.684Z,8.30
2022-12-29T23:54:12.748Z,8.20
2022-12-29T23:56:40.657Z,8.20
2022-12-29T23:59:08.663Z,8.10
